FKYS/NSI METAR and TAF weather

Enter ICAO airport designator
Station Type Date Time Source
FKYS METAR 2021/03/05 06:00 UTC NOAA

FKYS 050600Z 28002KT 4000 BR BKN006 23/23 Q1014 NOSIG


Station Type Date Time Source
FKYS Decoded METAR 2021/03/05 06:00 UTC NOAA

Yaounde, Cameroon (FKYS) 03-50N 011-31E 760M
Mar 05, 2021 - 01:00 AM EST / 2021.03.05 0600 UTC
Wind: from the W (280 degrees) at 2 MPH (2 KT):0
Visibility: 2 mile(s):0
Sky conditions: mostly cloudy
Weather: mist
Temperature: 73 F (23 C)
Dew Point: 73 F (23 C)
Relative Humidity: 100%
Pressure (altimeter): 29.94 in. Hg (1014 hPa)
ob: FKYS 050600Z 28002KT 4000 BR BKN006 23/23 Q1014 NOSIG
cycle: 6

Station Type Date Time Source
FKYS TAF 2021/03/05 06:15 UTC NOAA

TAF FKYS 050500Z 0506/0606 VRB05KT 6000 BKN006
BECMG 0507/0509 BKN016 PROB40 0513/0518 4000 HZ
BECMG 0522/0524 BKN006

Example: see airport list